createdAt,value
2019-05-28T00:02:55.589Z,1
2019-05-28T00:07:58.031Z,1
2019-05-28T00:13:00.527Z,1
2019-05-28T00:18:02.933Z,1
2019-05-28T00:23:05.392Z,1
2019-05-28T00:28:07.845Z,1
2019-05-28T00:33:10.313Z,1
2019-05-28T00:38:12.780Z,1
2019-05-28T00:43:15.225Z,1
2019-05-28T00:48:17.675Z,1
2019-05-28T00:53:20.140Z,1
2019-05-28T00:58:22.730Z,1
2019-05-28T01:03:25.032Z,1
2019-05-28T01:08:27.496Z,1
2019-05-28T01:13:29.974Z,1
2019-05-28T01:18:32.432Z,1
2019-05-28T01:23:34.913Z,1
2019-05-28T01:28:37.421Z,1
2019-05-28T01:33:39.870Z,1
2019-05-28T01:38:42.237Z,1
2019-05-28T01:43:44.730Z,1
2019-05-28T01:48:47.168Z,1
2019-05-28T01:53:49.643Z,1
2019-05-28T01:58:52.172Z,1
2019-05-28T02:03:54.545Z,1
2019-05-28T02:08:57.023Z,1
2019-05-28T02:13:59.462Z,1
2019-05-28T02:19:01.956Z,1
2019-05-28T02:24:04.433Z,1
2019-05-28T02:29:06.890Z,1
2019-05-28T02:34:09.311Z,1
2019-05-28T02:39:11.748Z,1
2019-05-28T02:44:14.209Z,1
2019-05-28T02:49:16.653Z,1
2019-05-28T02:54:19.138Z,1
2019-05-28T02:59:21.609Z,1
2019-05-28T03:04:24.059Z,1
2019-05-28T03:09:26.516Z,1
2019-05-28T03:14:29.005Z,1
2019-05-28T03:19:31.409Z,16.5
2019-05-28T03:24:33.877Z,36.8
2019-05-28T03:29:36.397Z,58.3
2019-05-28T03:34:41.805Z,99.9
2019-05-28T03:39:41.268Z,99.9
2019-05-28T03:44:43.782Z,99.9
2019-05-28T03:49:46.146Z,99.9
2019-05-28T03:54:48.627Z,99.9
2019-05-28T03:59:51.194Z,99.9
2019-05-28T04:04:53.525Z,99.9
2019-05-28T04:09:56.047Z,99.9
2019-05-28T04:14:58.434Z,99.9
2019-05-28T04:20:00.903Z,99.9
2019-05-28T04:25:03.553Z,99.9
2019-05-28T04:30:05.850Z,99.9
2019-05-28T04:35:08.341Z,99.9
2019-05-28T04:40:10.770Z,99.9
2019-05-28T04:45:13.292Z,99.9
2019-05-28T04:50:15.700Z,99.9
2019-05-28T04:55:18.328Z,99.9
2019-05-28T05:00:20.683Z,99.9
2019-05-28T05:05:23.042Z,99.9
2019-05-28T05:10:25.491Z,99.9
2019-05-28T05:15:27.941Z,99.9
2019-05-28T05:20:30.476Z,99.9
2019-05-28T05:25:32.913Z,99.9
2019-05-28T05:30:35.347Z,99.9
2019-05-28T05:35:37.813Z,99.9
2019-05-28T05:40:40.247Z,99.9
2019-05-28T05:45:42.718Z,99.9
2019-05-28T05:50:45.460Z,99.9
2019-05-28T05:55:47.633Z,99.9
2019-05-28T06:00:50.135Z,99.9
2019-05-28T06:05:52.533Z,99.9
2019-05-28T06:10:55.005Z,99.9
2019-05-28T06:15:57.433Z,99.9
2019-05-28T06:21:11.574Z,99.9
2019-05-28T06:26:02.372Z,99.9
2019-05-28T06:31:04.814Z,99.9
2019-05-28T06:36:07.371Z,99.9
2019-05-28T06:41:09.730Z,99.9
2019-05-28T06:46:12.186Z,99.9
2019-05-28T06:51:14.649Z,99.9
2019-05-28T06:56:17.110Z,99.9
2019-05-28T07:01:19.570Z,99.9
2019-05-28T07:06:22.092Z,99.9
2019-05-28T07:11:24.541Z,99.9
2019-05-28T07:16:26.932Z,99.9
2019-05-28T07:21:29.402Z,99.9
2019-05-28T07:26:31.862Z,99.9
2019-05-28T07:31:34.350Z,99.9
2019-05-28T07:36:36.760Z,99.9
2019-05-28T07:41:39.262Z,99.9
2019-05-28T07:46:41.697Z,99.9
2019-05-28T07:51:44.167Z,99.9
2019-05-28T07:56:46.616Z,99.9
2019-05-28T08:01:49.081Z,99.9
2019-05-28T08:06:54.935Z,99.9
2019-05-28T08:11:53.988Z,99.9
2019-05-28T08:16:56.429Z,99.9
2019-05-28T08:21:58.893Z,99.9
2019-05-28T08:27:01.350Z,99.9
2019-05-28T08:32:03.830Z,99.9
2019-05-28T08:37:06.799Z,99.9
2019-05-28T08:42:08.738Z,99.9
2019-05-28T08:47:11.245Z,99.9
2019-05-28T08:52:13.650Z,99.9
2019-05-28T08:57:16.185Z,99.9
2019-05-28T09:02:27.623Z,99.9
2019-05-28T09:07:21.078Z,94.4
2019-05-28T09:12:23.829Z,71.3
2019-05-28T09:17:25.944Z,48.5
2019-05-28T09:22:28.381Z,35.3
2019-05-28T09:27:30.850Z,28.8
2019-05-28T09:32:33.313Z,24
2019-05-28T09:37:35.757Z,32.6
2019-05-28T09:42:38.246Z,39.4
2019-05-28T09:47:40.738Z,50.7
2019-05-28T09:52:54.054Z,14.3
2019-05-28T09:57:47.623Z,8.8
2019-05-28T10:02:48.131Z,8.4
2019-05-28T10:07:50.512Z,2.3
2019-05-28T10:12:52.971Z,1
2019-05-28T10:17:55.451Z,1
2019-05-28T10:22:57.932Z,1
2019-05-28T10:28:01.790Z,1
2019-05-28T10:33:02.805Z,1
2019-05-28T10:38:05.307Z,1
2019-05-28T10:43:07.789Z,1
2019-05-28T10:48:10.198Z,1
2019-05-28T10:53:12.636Z,1
2019-05-28T10:58:15.097Z,1
2019-05-28T11:03:17.568Z,1
2019-05-28T11:08:20.032Z,1
2019-05-28T11:13:22.569Z,1
2019-05-28T11:18:24.937Z,1
2019-05-28T11:23:27.382Z,1
2019-05-28T11:28:29.883Z,1
2019-05-28T11:33:32.327Z,1
2019-05-28T11:38:34.758Z,1
2019-05-28T11:43:37.243Z,1
2019-05-28T11:48:39.678Z,1
2019-05-28T11:53:42.418Z,1
2019-05-28T12:03:47.051Z,1
2019-05-28T12:08:49.538Z,1
2019-05-28T12:13:51.985Z,1
2019-05-28T12:18:58.104Z,1
2019-05-28T12:23:56.901Z,1
2019-05-28T12:28:59.438Z,1
2019-05-28T12:34:01.861Z,1
2019-05-28T12:39:04.461Z,1
2019-05-28T12:44:06.732Z,1
2019-05-28T12:49:09.221Z,1
2019-05-28T12:54:11.711Z,1
2019-05-28T12:59:14.142Z,1
2019-05-28T13:04:16.555Z,1
2019-05-28T13:09:19.041Z,1
2019-05-28T13:14:21.468Z,1
2019-05-28T13:19:24.352Z,1
2019-05-28T13:24:26.534Z,1
2019-05-28T13:29:28.860Z,1
2019-05-28T13:34:31.354Z,1
2019-05-28T13:39:33.797Z,1
2019-05-28T13:44:36.398Z,1
2019-05-28T13:49:38.710Z,1
2019-05-28T13:54:41.584Z,1
2019-05-28T13:59:43.628Z,1
2019-05-28T14:04:46.075Z,1
2019-05-28T14:09:48.707Z,1
2019-05-28T14:14:51.036Z,1
2019-05-28T14:19:53.523Z,1
2019-05-28T14:24:55.919Z,1
2019-05-28T14:29:58.380Z,1
2019-05-28T14:35:00.854Z,1
2019-05-28T14:40:03.374Z,1
2019-05-28T14:45:05.760Z,1
2019-05-28T14:50:08.236Z,1
2019-05-28T15:00:13.169Z,1
2019-05-28T15:05:15.683Z,1
2019-05-28T15:10:18.059Z,1
2019-05-28T15:15:34.393Z,1
2019-05-28T15:20:22.969Z,1
2019-05-28T15:25:25.412Z,1
2019-05-28T15:30:27.863Z,1
2019-05-28T15:35:30.346Z,1
2019-05-28T15:40:32.801Z,1
2019-05-28T15:45:35.258Z,1
2019-05-28T15:50:37.733Z,1
2019-05-28T15:55:40.171Z,1
2019-05-28T16:00:42.623Z,1
2019-05-28T16:05:45.087Z,1
2019-05-28T16:10:47.549Z,1
2019-05-28T16:15:50.029Z,1
2019-05-28T16:20:52.474Z,1
2019-05-28T16:25:54.913Z,1
2019-05-28T16:31:11.555Z,1
2019-05-28T16:35:59.883Z,1
2019-05-28T16:41:02.284Z,1
2019-05-28T16:46:04.755Z,1
2019-05-28T16:51:07.222Z,1
2019-05-28T16:56:09.677Z,1
2019-05-28T17:01:22.156Z,1
2019-05-28T17:06:14.613Z,1
2019-05-28T17:11:17.123Z,1
2019-05-28T17:16:19.504Z,1
2019-05-28T17:21:23.177Z,1
2019-05-28T17:26:24.422Z,1
2019-05-28T17:31:26.892Z,1
2019-05-28T17:36:29.328Z,1
2019-05-28T17:41:31.825Z,1
2019-05-28T17:46:34.270Z,1
2019-05-28T17:51:36.720Z,1
2019-05-28T17:56:39.155Z,1
2019-05-28T18:01:41.612Z,1
2019-05-28T18:06:44.067Z,1
2019-05-28T18:11:46.595Z,1
2019-05-28T18:16:49.007Z,1
2019-05-28T18:21:51.443Z,1
2019-05-28T18:26:53.885Z,1
2019-05-28T18:36:58.879Z,1
2019-05-28T18:42:01.296Z,1
2019-05-28T18:47:03.728Z,1
2019-05-28T18:52:06.260Z,1
2019-05-28T18:57:08.877Z,1
2019-05-28T19:02:11.102Z,1
2019-05-28T19:07:13.558Z,1
2019-05-28T19:12:16.050Z,1
2019-05-28T19:17:18.496Z,1
2019-05-28T19:22:20.995Z,1
2019-05-28T19:27:23.477Z,1
2019-05-28T19:32:25.897Z,1
2019-05-28T19:37:28.325Z,1
2019-05-28T19:42:30.772Z,1
2019-05-28T19:47:33.227Z,1
2019-05-28T19:52:35.689Z,1
2019-05-28T19:57:38.375Z,1
2019-05-28T20:02:40.712Z,1
2019-05-28T20:07:43.059Z,1
2019-05-28T20:12:45.513Z,1
2019-05-28T20:17:48.481Z,1
2019-05-28T20:22:50.431Z,1
2019-05-28T20:27:53.926Z,1
2019-05-28T20:32:55.353Z,1
2019-05-28T20:37:57.829Z,1
2019-05-28T20:43:00.259Z,1
2019-05-28T20:48:02.709Z,1
2019-05-28T20:53:05.175Z,1
2019-05-28T20:58:07.663Z,1
2019-05-28T21:03:10.111Z,1
2019-05-28T21:08:12.566Z,1.4
2019-05-28T21:13:15.023Z,1
2019-05-28T21:18:17.820Z,1
2019-05-28T21:23:19.944Z,1
2019-05-28T21:28:25.657Z,1
2019-05-28T21:33:24.864Z,1
2019-05-28T21:38:27.296Z,1
2019-05-28T21:43:29.764Z,1
2019-05-28T21:48:32.238Z,1
2019-05-28T21:53:34.666Z,1
2019-05-28T21:58:37.134Z,1
2019-05-28T22:03:39.588Z,1
2019-05-28T22:08:42.039Z,1
2019-05-28T22:13:44.491Z,1
2019-05-28T22:18:46.944Z,1
2019-05-28T22:23:49.426Z,1
2019-05-28T22:28:51.865Z,1
2019-05-28T22:33:54.324Z,1
2019-05-28T22:38:56.783Z,1
2019-05-28T22:43:59.243Z,1
2019-05-28T22:49:01.739Z,1
2019-05-28T22:54:04.173Z,1
2019-05-28T22:59:06.624Z,1
2019-05-28T23:09:11.522Z,1
2019-05-28T23:14:13.993Z,5.2
2019-05-28T23:19:16.524Z,4.3
2019-05-28T23:24:18.912Z,6.8
2019-05-28T23:29:21.348Z,15
2019-05-28T23:34:23.800Z,15.5
2019-05-28T23:39:26.270Z,20.4
2019-05-28T23:44:28.742Z,28.7
2019-05-28T23:49:31.211Z,42.5
2019-05-28T23:54:33.659Z,65.2
2019-05-28T23:59:36.282Z,78.9
